Time;durP1;ratioP1;P1;durP2;ratioP2;P2;SDS_P1;SDS_P2;PMS_P1;PMS_P2;Temp;Humidity;BMP_temperature;BMP_pressure;BME280_temperature;BME280_humidity;BME280_pressure;Samples;Min_cycle;Max_cycle;Signal;HPM_P1;HPM_P2
2023/06/09 00:03:00;;;;;;;4.80;4.30;;;;;15.70;96101.00;;;;8274376;28;20241;-70
2023/06/09 00:07:08;;;;;;;7.00;4.60;;;;;15.60;96102.00;;;;8280643;28;20202;-67
2023/06/09 00:11:13;;;;;;;5.22;3.90;;;;;15.50;96084.00;;;;8286749;28;20209;-71
2023/06/09 00:15:19;;;;;;;4.55;4.15;;;;;15.40;96104.00;;;;8281805;28;20317;-70
2023/06/09 00:19:24;;;;;;;6.25;4.78;;;;;15.40;96110.00;;;;8286010;28;20727;-68
2023/06/09 00:23:32;;;;;;;6.32;4.97;;;;;15.50;96103.00;;;;8284610;28;20289;-71
2023/06/09 00:27:36;;;;;;;5.75;4.43;;;;;15.40;96103.00;;;;8280193;28;20210;-71
2023/06/09 00:31:42;;;;;;;4.68;4.20;;;;;15.20;96100.00;;;;8278914;28;20201;-74
2023/06/09 00:35:50;;;;;;;5.30;4.75;;;;;15.20;96097.00;;;;8280219;28;20238;-75
2023/06/09 00:39:57;;;;;;;7.10;5.38;;;;;15.20;96099.00;;;;8282178;28;20205;-71
2023/06/09 00:44:02;;;;;;;6.57;5.15;;;;;15.20;96093.00;;;;8277002;28;20202;-72
2023/06/09 00:48:06;;;;;;;5.70;4.78;;;;;15.20;96090.00;;;;8290891;28;20525;-69
2023/06/09 00:52:09;;;;;;;5.63;4.80;;;;;15.30;96087.00;;;;8267087;28;20644;-71
2023/06/09 00:56:14;;;;;;;6.75;5.40;;;;;15.30;96091.00;;;;8276746;28;20734;-73
2023/06/09 01:00:18;;;;;;;7.30;5.22;;;;;15.20;96103.00;;;;8284659;28;20229;-73
2023/06/09 01:04:21;;;;;;;8.23;4.93;;;;;15.20;96098.00;;;;8283002;28;20214;-70
2023/06/09 01:08:35;;;;;;;7.03;5.00;;;;;15.20;96092.00;;;;8279037;28;20244;-72
2023/06/09 01:12:57;;;;;;;9.05;5.53;;;;;15.20;96092.00;;;;8286519;28;20612;-72
2023/06/09 01:17:08;;;;;;;6.90;5.75;;;;;15.20;96095.00;;;;8282183;28;20752;-70
2023/06/09 01:21:21;;;;;;;7.10;5.47;;;;;15.10;96088.00;;;;8285711;28;20202;-70
2023/06/09 01:25:35;;;;;;;9.77;5.00;;;;;15.10;96090.00;;;;8277735;28;20285;-72
2023/06/09 01:29:40;;;;;;;6.03;5.20;;;;;15.20;96096.00;;;;8272362;28;20241;-72
2023/06/09 01:33:44;;;;;;;6.50;5.40;;;;;15.20;96089.00;;;;8273056;28;20233;-68
2023/06/09 01:37:48;;;;;;;8.60;5.40;;;;;15.20;96092.00;;;;8277672;28;20199;-69
2023/06/09 01:41:52;;;;;;;6.47;5.53;;;;;15.10;96092.00;;;;8266916;28;20302;-71
2023/06/09 01:45:57;;;;;;;5.93;5.10;;;;;14.90;96100.00;;;;8278145;28;20237;-68
2023/06/09 01:50:04;;;;;;;7.72;5.50;;;;;14.90;96100.00;;;;8280997;28;20195;-68
2023/06/09 01:54:12;;;;;;;10.00;5.70;;;;;14.80;96097.00;;;;8277432;28;20245;-74
2023/06/09 01:58:20;;;;;;;8.50;5.80;;;;;14.70;96092.00;;;;8280008;28;20194;-73
2023/06/09 02:02:29;;;;;;;11.73;5.60;;;;;14.60;96088.00;;;;8278259;28;20235;-74
2023/06/09 02:06:36;;;;;;;10.25;6.00;;;;;14.50;96085.00;;;;8277533;28;20744;-77
2023/06/09 02:10:40;;;;;;;8.38;5.55;;;;;14.40;96083.00;;;;8285639;28;20252;-74
2023/06/09 02:14:47;;;;;;;8.13;5.85;;;;;14.30;96092.00;;;;8276040;28;20265;-70
2023/06/09 02:18:51;;;;;;;8.10;6.57;;;;;14.10;96096.00;;;;8280706;28;21012;-72
2023/06/09 02:22:54;;;;;;;10.80;6.45;;;;;14.10;96096.00;;;;8279165;28;20254;-71
2023/06/09 02:26:58;;;;;;;9.80;6.28;;;;;14.00;96093.00;;;;8282712;28;20857;-75
2023/06/09 02:31:05;;;;;;;12.32;6.60;;;;;13.90;96085.00;;;;8278968;28;20204;-72
2023/06/09 02:35:09;;;;;;;8.40;6.53;;;;;13.90;96084.00;;;;8272702;28;20261;-72
2023/06/09 02:39:15;;;;;;;8.68;6.63;;;;;13.90;96078.00;;;;8283598;28;20216;-72
2023/06/09 02:43:20;;;;;;;11.50;6.78;;;;;13.80;96082.00;;;;8281370;28;20225;-73
2023/06/09 02:47:27;;;;;;;12.60;6.75;;;;;13.70;96072.00;;;;8299852;28;20208;-75
2023/06/09 02:51:31;;;;;;;9.75;6.93;;;;;13.60;96085.00;;;;8280199;28;20208;-69
2023/06/09 02:55:37;;;;;;;15.57;7.28;;;;;13.60;96087.00;;;;8268222;28;20240;-69
2023/06/09 02:59:50;;;;;;;10.85;7.15;;;;;13.60;96093.00;;;;8275753;28;20296;-69
2023/06/09 03:03:57;;;;;;;9.57;6.82;;;;;13.60;96092.00;;;;8324288;23;20246;-72
2023/06/09 03:08:03;;;;;;;9.20;6.78;;;;;13.60;96082.00;;;;8311371;28;20204;-72
2023/06/09 03:12:08;;;;;;;13.57;7.22;;;;;13.60;96083.00;;;;8317201;28;20207;-71
2023/06/09 03:16:11;;;;;;;9.32;7.05;;;;;13.60;96085.00;;;;8300513;28;20688;-68
2023/06/09 03:20:20;;;;;;;11.20;7.32;;;;;13.60;96091.00;;;;8305745;28;20790;-71
2023/06/09 03:24:26;;;;;;;10.43;7.13;;;;;13.60;96102.00;;;;8304276;28;20214;-66
2023/06/09 03:28:29;;;;;;;9.65;7.05;;;;;13.50;96103.00;;;;8307443;28;20230;-70
2023/06/09 03:32:32;;;;;;;9.82;6.63;;;;;13.50;96109.00;;;;8301520;28;20307;-73
2023/06/09 03:36:37;;;;;;;12.50;7.50;;;;;13.50;96117.00;;;;8311809;28;20265;-72
2023/06/09 03:40:40;;;;;;;11.52;7.30;;;;;13.50;96114.00;;;;8314473;28;20618;-72
2023/06/09 03:44:43;;;;;;;10.95;7.78;;;;;13.50;96126.00;;;;8312728;28;20205;-70
2023/06/09 03:48:52;;;;;;;12.20;7.88;;;;;13.70;96116.00;;;;8313836;28;20203;-71
2023/06/09 03:52:57;;;;;;;12.10;7.63;;;;;13.70;96124.00;;;;8307018;28;20763;-73
2023/06/09 03:57:03;;;;;;;11.48;7.60;;;;;13.80;96140.00;;;;8311700;28;20665;-71
2023/06/09 04:01:10;;;;;;;11.05;7.68;;;;;13.80;96134.00;;;;8316355;28;20282;-75
2023/06/09 04:05:16;;;;;;;11.55;7.88;;;;;14.00;96133.00;;;;8260775;28;20209;-72
2023/06/09 04:09:27;;;;;;;8.98;7.38;;;;;14.20;96127.00;;;;8272242;28;20294;-73
2023/06/09 04:13:30;;;;;;;9.70;6.95;;;;;14.40;96130.00;;;;8269610;28;20247;-73
2023/06/09 04:17:37;;;;;;;8.57;7.22;;;;;14.60;96133.00;;;;8274468;28;20801;-73
2023/06/09 04:21:43;;;;;;;11.75;7.63;;;;;14.80;96132.00;;;;8269338;28;20202;-71
2023/06/09 04:25:48;;;;;;;18.05;7.88;;;;;15.00;96137.00;;;;8258850;28;20624;-70
2023/06/09 04:29:51;;;;;;;9.50;6.55;;;;;15.10;96127.00;;;;8268194;28;20209;-71
2023/06/09 04:33:55;;;;;;;15.60;6.88;;;;;15.20;96134.00;;;;8273392;28;20614;-72
2023/06/09 04:38:03;;;;;;;7.57;6.28;;;;;15.40;96139.00;;;;8268141;28;20336;-74
2023/06/09 04:42:11;;;;;;;6.95;6.25;;;;;15.60;96140.00;;;;8272783;28;20210;-70
2023/06/09 04:46:16;;;;;;;6.90;6.00;;;;;15.90;96135.00;;;;8272495;28;20230;-69
2023/06/09 04:50:21;;;;;;;6.50;5.80;;;;;16.10;96129.00;;;;8261144;28;20618;-74
2023/06/09 04:54:25;;;;;;;8.43;5.80;;;;;16.30;96130.00;;;;8274173;28;20204;-73
2023/06/09 04:58:31;;;;;;;8.90;6.00;;;;;16.50;96132.00;;;;8293146;28;20225;-72
2023/06/09 05:02:39;;;;;;;9.68;5.70;;;;;16.70;96138.00;;;;8286814;28;20234;-73
2023/06/09 05:06:45;;;;;;;8.45;6.07;;;;;16.80;96141.00;;;;8279222;28;20233;-72
2023/06/09 05:10:49;;;;;;;9.15;5.97;;;;;16.90;96135.00;;;;8284408;28;20285;-72
2023/06/09 05:14:56;;;;;;;8.85;6.40;;;;;16.90;96147.00;;;;8273579;28;20263;-69
2023/06/09 05:19:04;;;;;;;9.23;6.53;;;;;17.00;96160.00;;;;8280668;28;20691;-71
2023/06/09 05:23:10;;;;;;;12.02;6.80;;;;;17.20;96152.00;;;;8270430;28;20203;-68
2023/06/09 05:27:14;;;;;;;7.60;6.25;;;;;17.40;96153.00;;;;8267751;28;20198;-76
2023/06/09 05:31:20;;;;;;;7.60;6.00;;;;;17.50;96157.00;;;;8271327;28;20292;-74
2023/06/09 05:35:25;;;;;;;8.38;6.38;;;;;17.70;96163.00;;;;8266170;28;20246;-72
2023/06/09 05:39:30;;;;;;;8.43;6.10;;;;;17.90;96163.00;;;;8268599;28;20216;-73
2023/06/09 05:43:34;;;;;;;13.52;7.13;;;;;18.10;96165.00;;;;8256641;28;20759;-72
2023/06/09 05:47:39;;;;;;;8.63;6.22;;;;;18.20;96173.00;;;;8275071;28;20241;-72
2023/06/09 05:51:42;;;;;;;10.35;6.93;;;;;18.20;96165.00;;;;8266680;28;20286;-70
2023/06/09 05:55:49;;;;;;;11.68;6.75;;;;;18.20;96165.00;;;;8269456;28;22410;-74
2023/06/09 05:59:52;;;;;;;9.20;6.88;;;;;18.30;96171.00;;;;8264753;28;20628;-75
2023/06/09 06:03:56;;;;;;;7.95;6.25;;;;;18.60;96178.00;;;;8268882;28;20595;-73
2023/06/09 06:08:01;;;;;;;7.07;6.32;;;;;18.80;96174.00;;;;8269119;28;20567;-72
2023/06/09 06:12:05;;;;;;;7.45;6.68;;;;;19.00;96172.00;;;;8263839;28;20202;-73
2023/06/09 06:16:16;;;;;;;9.98;7.65;;;;;19.10;96179.00;;;;8269899;28;20332;-73
2023/06/09 06:20:20;;;;;;;10.10;8.50;;;;;19.30;96174.00;;;;8268565;28;20640;-74
2023/06/09 06:24:23;;;;;;;9.48;7.30;;;;;19.40;96168.00;;;;8264899;28;20325;-73
2023/06/09 06:28:28;;;;;;;7.97;6.72;;;;;20.00;96170.00;;;;8253959;28;20268;-70
2023/06/09 06:32:33;;;;;;;7.07;6.38;;;;;20.90;96172.00;;;;8266129;28;20248;-72
2023/06/09 06:36:37;;;;;;;8.77;6.38;;;;;21.30;96177.00;;;;8267040;28;20265;-70
2023/06/09 06:40:47;;;;;;;6.20;5.60;;;;;22.20;96180.00;;;;8254416;28;20233;-71
2023/06/09 06:44:51;;;;;;;5.35;4.57;;;;;22.40;96180.00;;;;8267567;28;20233;-76
2023/06/09 06:48:55;;;;;;;5.05;4.55;;;;;21.80;96183.00;;;;8260393;28;20245;-74
2023/06/09 06:53:01;;;;;;;4.70;4.30;;;;;21.80;96185.00;;;;8258183;28;20237;-72
2023/06/09 06:57:06;;;;;;;5.13;4.55;;;;;22.30;96190.00;;;;8268683;28;20590;-71
2023/06/09 07:01:12;;;;;;;5.70;4.43;;;;;22.40;96191.00;;;;8259505;28;20244;-74
2023/06/09 07:05:17;;;;;;;5.25;4.32;;;;;22.10;96190.00;;;;8260447;28;20695;-73
2023/06/09 07:09:25;;;;;;;6.00;4.40;;;;;22.00;96201.00;;;;8266990;28;20194;-76
2023/06/09 07:13:36;;;;;;;6.68;4.35;;;;;22.30;96201.00;;;;8269115;28;20206;-72
2023/06/09 07:17:44;;;;;;;6.35;4.53;;;;;22.30;96201.00;;;;8277686;28;20352;-73
2023/06/09 07:21:50;;;;;;;7.07;4.35;;;;;22.30;96196.00;;;;8266566;28;20616;-71
2023/06/09 07:25:55;;;;;;;6.43;5.00;;;;;22.10;96200.00;;;;8256456;28;21124;-76
2023/06/09 07:29:59;;;;;;;11.27;5.05;;;;;22.10;96207.00;;;;8263060;28;20806;-77
2023/06/09 07:34:02;;;;;;;7.50;4.07;;;;;22.80;96201.00;;;;8268812;28;20233;-72
2023/06/09 07:38:05;;;;;;;5.25;4.55;;;;;23.50;96202.00;;;;8273093;28;20527;-74
2023/06/09 07:42:10;;;;;;;4.97;4.47;;;;;24.30;96200.00;;;;8274000;28;20243;-73
2023/06/09 07:46:17;;;;;;;5.03;4.63;;;;;24.70;96201.00;;;;8269872;28;20222;-71
2023/06/09 07:50:23;;;;;;;8.50;4.35;;;;;25.80;96196.00;;;;8265222;28;20199;-67
2023/06/09 07:54:29;;;;;;;8.02;4.40;;;;;26.70;96198.00;;;;8269334;28;20199;-67
2023/06/09 07:58:33;;;;;;;6.80;4.20;;;;;27.90;96200.00;;;;8275452;28;20987;-68
2023/06/09 08:02:40;;;;;;;5.18;4.13;;;;;28.80;96200.00;;;;8271620;28;20831;-68
2023/06/09 08:06:44;;;;;;;5.93;3.80;;;;;28.90;96195.00;;;;8272886;28;20865;-70
2023/06/09 08:10:48;;;;;;;4.18;3.78;;;;;29.20;96191.00;;;;8275145;28;20256;-70
2023/06/09 08:14:54;;;;;;;3.78;3.47;;;;;29.40;96181.00;;;;8262834;28;20221;-75
2023/06/09 08:18:58;;;;;;;4.70;3.80;;;;;29.50;96190.00;;;;8268526;28;20227;-72
2023/06/09 08:23:02;;;;;;;4.35;3.88;;;;;29.90;96185.00;;;;8267361;28;20329;-67
2023/06/09 08:27:07;;;;;;;7.05;3.95;;;;;30.50;96183.00;;;;8262759;28;20218;-67
2023/06/09 08:31:14;;;;;;;4.03;3.72;;;;;31.00;96181.00;;;;8258558;28;20202;-66
2023/06/09 08:35:21;;;;;;;3.83;3.42;;;;;31.20;96183.00;;;;8265109;28;20203;-66
2023/06/09 08:39:24;;;;;;;4.53;3.72;;;;;31.70;96183.00;;;;8275393;28;20222;-66
2023/06/09 08:43:28;;;;;;;4.00;3.70;;;;;31.80;96193.00;;;;8264679;28;20726;-65
2023/06/09 08:47:38;;;;;;;6.05;3.65;;;;;31.80;96180.00;;;;8270442;28;20194;-69
2023/06/09 08:51:43;;;;;;;4.50;4.00;;;;;32.20;96182.00;;;;8267143;28;20201;-69
2023/06/09 08:55:47;;;;;;;3.78;3.47;;;;;32.40;96183.00;;;;8270859;28;20233;-70
2023/06/09 08:59:54;;;;;;;3.85;3.55;;;;;33.00;96182.00;;;;8266983;28;20236;-69
2023/06/09 09:04:02;;;;;;;4.30;3.90;;;;;33.80;96180.00;;;;8270628;28;20758;-68
2023/06/09 09:08:14;;;;;;;5.45;3.78;;;;;34.00;96183.00;;;;8265679;28;20625;-68
2023/06/09 09:12:17;;;;;;;3.75;3.45;;;;;34.00;96184.00;;;;8267122;28;20825;-69
2023/06/09 09:16:31;;;;;;;5.00;3.92;;;;;34.10;96179.00;;;;8274161;28;20212;-70
2023/06/09 09:20:36;;;;;;;4.95;4.30;;;;;33.80;96183.00;;;;8254815;28;20394;-68
2023/06/09 09:24:47;;;;;;;5.10;4.00;;;;;33.30;96184.00;;;;8270756;28;20242;-68
2023/06/09 09:28:53;;;;;;;5.32;4.07;;;;;33.20;96187.00;;;;8256446;28;20206;-68
2023/06/09 09:32:57;;;;;;;4.07;3.70;;;;;33.80;96186.00;;;;8265334;28;20282;-68
2023/06/09 09:37:03;;;;;;;4.40;4.00;;;;;34.40;96182.00;;;;8270028;28;20262;-68
2023/06/09 09:41:07;;;;;;;4.13;3.83;;;;;34.10;96177.00;;;;8263670;28;20198;-68
2023/06/09 09:45:17;;;;;;;4.13;3.83;;;;;33.80;96172.00;;;;8262513;28;20199;-69
2023/06/09 09:49:23;;;;;;;4.28;3.88;;;;;33.90;96167.00;;;;8262981;28;20210;-67
2023/06/09 09:53:31;;;;;;;6.63;4.07;;;;;34.10;96168.00;;;;8261390;28;20333;-67
2023/06/09 09:57:36;;;;;;;5.18;4.00;;;;;34.90;96163.00;;;;8265099;28;20984;-66
2023/06/09 10:01:39;;;;;;;7.47;3.88;;;;;35.40;96156.00;;;;8264613;28;20317;-66
2023/06/09 10:05:46;;;;;;;4.50;4.10;;;;;35.50;96166.00;;;;8253406;28;20199;-67
2023/06/09 10:09:52;;;;;;;4.57;4.10;;;;;36.00;96159.00;;;;8266282;28;20195;-66
2023/06/09 10:13:59;;;;;;;3.92;3.63;;;;;36.20;96150.00;;;;8261761;28;20206;-67
2023/06/09 10:18:06;;;;;;;5.72;3.92;;;;;36.70;96146.00;;;;8265157;28;20288;-67
2023/06/09 10:22:13;;;;;;;4.70;4.30;;;;;36.30;96147.00;;;;8269980;28;20656;-67
2023/06/09 10:26:20;;;;;;;5.30;3.90;;;;;36.40;96149.00;;;;8265639;28;20635;-68
2023/06/09 10:30:25;;;;;;;4.28;3.88;;;;;36.60;96147.00;;;;8253382;28;21034;-65
2023/06/09 10:34:32;;;;;;;5.63;3.92;;;;;36.80;96146.00;;;;8259925;28;20956;-65
2023/06/09 10:38:41;;;;;;;5.20;3.95;;;;;36.60;96145.00;;;;8261099;28;20316;-65
2023/06/09 10:42:57;;;;;;;4.93;4.30;;;;;37.00;96135.00;;;;8270406;28;20202;-65
2023/06/09 10:47:00;;;;;;;6.82;3.75;;;;;37.40;96130.00;;;;8261099;28;20206;-65
2023/06/09 10:51:37;;;;;;;5.18;4.10;;;;;37.60;96129.00;;;;8267559;28;20305;-65
2023/06/09 10:55:43;;;;;;;6.15;3.95;;;;;38.00;96128.00;;;;8266169;28;20225;-65
2023/06/09 11:00:04;;;;;;;5.30;3.80;;;;;38.70;96122.00;;;;8253267;28;20407;-65
2023/06/09 11:04:44;;;;;;;5.13;4.57;;;;;39.00;96119.00;;;;8264329;28;20232;-66
2023/06/09 11:09:11;;;;;;;6.30;3.70;;;;;37.00;96120.00;;;;8264727;28;20290;-65
2023/06/09 11:13:38;;;;;;;6.53;4.43;;;;;36.50;96126.00;;;;8269206;28;20666;-65
2023/06/09 11:17:45;;;;;;;5.43;4.28;;;;;35.70;96114.00;;;;8268578;28;20315;-65
2023/06/09 11:22:03;;;;;;;6.78;4.18;;;;;34.70;96124.00;;;;8271379;28;20289;-65
2023/06/09 11:26:26;;;;;;;6.00;4.22;;;;;32.40;96138.00;;;;8269304;28;20230;-65
2023/06/09 11:30:31;;;;;;;4.65;4.10;;;;;29.80;96136.00;;;;8259173;28;20229;-66
2023/06/09 11:34:55;;;;;;;5.07;3.78;;;;;28.00;96127.00;;;;8267600;28;20206;-66
2023/06/09 11:39:07;;;;;;;4.63;3.38;;;;;26.80;96121.00;;;;8263133;28;20228;-65
2023/06/09 11:43:13;;;;;;;4.47;3.90;;;;;25.70;96113.00;;;;8270429;28;20289;-67
2023/06/09 11:47:26;;;;;;;3.90;3.60;;;;;24.70;96110.00;;;;8274169;28;20290;-68
2023/06/09 11:51:59;;;;;;;6.00;3.92;;;;;24.10;96111.00;;;;8266561;28;20372;-67
2023/06/09 11:56:04;;;;;;;5.75;4.05;;;;;23.80;96096.00;;;;8257363;28;20203;-68
2023/06/09 12:00:14;;;;;;;5.15;4.18;;;;;23.80;96092.00;;;;8274084;28;20226;-68
2023/06/09 12:04:18;;;;;;;9.18;4.32;;;;;23.90;96079.00;;;;8285410;28;20536;-68
2023/06/09 12:08:25;;;;;;;5.40;4.22;;;;;24.30;96076.00;;;;8288626;28;20637;-68
2023/06/09 12:12:43;;;;;;;4.22;3.83;;;;;24.80;96074.00;;;;8282609;28;20217;-68
2023/06/09 12:16:48;;;;;;;4.38;3.88;;;;;25.20;96077.00;;;;8287892;28;20203;-69
2023/06/09 12:20:53;;;;;;;4.07;3.70;;;;;25.80;96080.00;;;;8294284;28;20229;-68
2023/06/09 12:24:58;;;;;;;4.68;3.45;;;;;26.50;96070.00;;;;8290481;28;20723;-68
2023/06/09 12:29:06;;;;;;;7.13;3.92;;;;;27.20;96078.00;;;;8289940;28;20233;-67
2023/06/09 12:33:11;;;;;;;4.50;3.40;;;;;27.90;96069.00;;;;8286897;28;20540;-67
2023/06/09 12:37:14;;;;;;;4.88;3.10;;;;;28.60;96062.00;;;;8282232;28;20203;-67
2023/06/09 12:41:20;;;;;;;3.78;3.17;;;;;29.70;96071.00;;;;8272558;28;20240;-69
2023/06/09 12:45:26;;;;;;;4.63;3.53;;;;;30.90;96069.00;;;;8275703;28;20222;-67
2023/06/09 12:49:34;;;;;;;4.72;3.50;;;;;31.60;96066.00;;;;8269064;28;20206;-68
2023/06/09 12:53:37;;;;;;;4.03;3.25;;;;;31.10;96065.00;;;;8271202;28;20252;-68
2023/06/09 12:57:44;;;;;;;3.38;3.08;;;;;30.50;96062.00;;;;8280376;28;20285;-68
2023/06/09 13:01:52;;;;;;;4.47;3.22;;;;;30.00;96060.00;;;;8276336;28;20258;-68
2023/06/09 13:06:00;;;;;;;6.15;4.25;;;;;29.50;96065.00;;;;8267078;28;20202;-68
2023/06/09 13:10:04;;;;;;;4.25;3.60;;;;;29.60;96066.00;;;;8268348;28;20607;-68
2023/06/09 13:14:11;;;;;;;6.28;3.90;;;;;30.40;96065.00;;;;8262966;28;20222;-67
2023/06/09 13:18:15;;;;;;;5.88;4.18;;;;;31.50;96063.00;;;;8263997;28;20249;-67
2023/06/09 13:22:18;;;;;;;7.18;4.50;;;;;31.90;96062.00;;;;8270679;28;20198;-68
2023/06/09 13:26:23;;;;;;;10.88;4.78;;;;;31.60;96055.00;;;;8272003;28;20205;-68
2023/06/09 13:30:28;;;;;;;7.15;4.30;;;;;30.40;96059.00;;;;8269630;28;20281;-68
2023/06/09 13:34:34;;;;;;;5.65;4.22;;;;;30.50;96049.00;;;;8281885;28;20285;-70
2023/06/09 13:38:40;;;;;;;7.70;4.75;;;;;31.00;96047.00;;;;8266730;28;20234;-70
2023/06/09 13:42:52;;;;;;;9.27;5.30;;;;;31.30;96048.00;;;;8270570;28;20198;-71
2023/06/09 13:47:00;;;;;;;9.75;4.72;;;;;31.90;96043.00;;;;8270640;28;20202;-71
2023/06/09 13:51:04;;;;;;;7.15;5.15;;;;;32.40;96046.00;;;;8274151;28;20224;-73
2023/06/09 13:55:23;;;;;;;6.05;4.47;;;;;33.10;96045.00;;;;8280694;28;20199;-76
2023/06/09 13:59:27;;;;;;;4.75;4.32;;;;;33.40;96045.00;;;;8282657;28;20724;-76
2023/06/09 14:03:31;;;;;;;7.63;4.50;;;;;33.60;96028.00;;;;8274750;28;20332;-74
2023/06/09 14:07:37;;;;;;;7.20;4.50;;;;;33.70;96035.00;;;;8279539;28;20260;-76
2023/06/09 14:11:41;;;;;;;8.50;4.80;;;;;34.30;96022.00;;;;8265435;28;20285;-75
2023/06/09 14:15:44;;;;;;;6.07;4.47;;;;;34.50;96019.00;;;;8266115;28;20238;-75
2023/06/09 14:19:49;;;;;;;5.20;4.10;;;;;34.70;96015.00;;;;8253409;28;20444;-74
2023/06/09 14:23:52;;;;;;;4.65;4.22;;;;;33.70;96028.00;;;;8275597;28;20260;-75
2023/06/09 14:27:56;;;;;;;4.72;4.30;;;;;32.50;96020.00;;;;8268493;28;20202;-75
2023/06/09 14:32:01;;;;;;;6.25;4.22;;;;;32.20;96021.00;;;;8272122;28;21103;-75
2023/06/09 14:36:07;;;;;;;5.28;3.90;;;;;32.40;96011.00;;;;8276852;28;20213;-75
2023/06/09 14:40:11;;;;;;;9.27;4.85;;;;;33.00;96012.00;;;;8263282;28;20661;-75
2023/06/09 14:44:16;;;;;;;4.53;4.00;;;;;33.50;96017.00;;;;8269487;28;20836;-74
2023/06/09 14:48:19;;;;;;;7.22;4.03;;;;;33.10;96005.00;;;;8273614;28;20277;-75
2023/06/09 14:52:24;;;;;;;5.65;4.32;;;;;32.70;96008.00;;;;8263358;28;20210;-76
2023/06/09 14:56:30;;;;;;;4.50;4.10;;;;;32.20;95997.00;;;;8272923;28;20225;-76
2023/06/09 15:00:38;;;;;;;6.18;4.60;;;;;32.10;96003.00;;;;8266777;28;20759;-75
2023/06/09 15:04:41;;;;;;;5.60;4.60;;;;;31.80;95999.00;;;;8260143;28;20285;-75
2023/06/09 15:08:50;;;;;;;4.55;4.15;;;;;32.00;95995.00;;;;8261814;28;20297;-75
2023/06/09 15:12:53;;;;;;;5.72;4.28;;;;;31.90;96003.00;;;;8259529;28;20548;-75
2023/06/09 15:16:57;;;;;;;8.68;4.60;;;;;31.40;95999.00;;;;8263168;28;20198;-74
2023/06/09 15:21:01;;;;;;;4.70;4.10;;;;;31.00;95992.00;;;;8257456;28;20234;-75
2023/06/09 15:25:09;;;;;;;7.10;4.13;;;;;31.00;95988.00;;;;8259345;28;20202;-75
2023/06/09 15:29:12;;;;;;;4.75;4.32;;;;;31.10;95991.00;;;;8275246;28;20210;-74
2023/06/09 15:33:26;;;;;;;5.32;4.38;;;;;30.70;95989.00;;;;8271715;28;20312;-75
2023/06/09 15:37:30;;;;;;;6.47;4.50;;;;;31.10;95987.00;;;;8264375;28;20206;-75
2023/06/09 15:41:35;;;;;;;5.20;4.75;;;;;31.70;95984.00;;;;8262656;28;20714;-75
2023/06/09 15:45:39;;;;;;;8.20;4.47;;;;;32.10;95981.00;;;;8268365;28;20218;-75
2023/06/09 15:49:42;;;;;;;5.85;4.43;;;;;32.30;95977.00;;;;8256263;28;20324;-75
2023/06/09 15:53:54;;;;;;;4.82;4.43;;;;;32.50;95982.00;;;;8269731;28;20718;-75
2023/06/09 15:58:03;;;;;;;6.38;5.25;;;;;32.70;95981.00;;;;8273476;28;20838;-75
2023/06/09 16:02:07;;;;;;;4.85;4.32;;;;;33.00;95980.00;;;;8273504;28;20234;-75
2023/06/09 16:06:14;;;;;;;5.00;4.50;;;;;32.40;95992.00;;;;8270494;28;20305;-75
2023/06/09 16:10:23;;;;;;;9.45;4.32;;;;;31.90;95995.00;;;;8262793;28;20195;-75
2023/06/09 16:14:33;;;;;;;4.55;4.15;;;;;31.70;95989.00;;;;8277049;28;20210;-75
2023/06/09 16:18:38;;;;;;;6.63;4.30;;;;;31.40;95992.00;;;;8262595;28;20290;-75
2023/06/09 16:22:44;;;;;;;4.93;4.35;;;;;31.40;95989.00;;;;8254924;28;22263;-75
2023/06/09 16:26:47;;;;;;;5.70;4.68;;;;;31.10;95997.00;;;;8255500;28;20302;-71
2023/06/09 16:30:52;;;;;;;4.72;4.22;;;;;31.20;95990.00;;;;8259904;28;20655;-72
2023/06/09 16:34:55;;;;;;;7.47;4.22;;;;;31.20;95998.00;;;;8259464;28;20866;-73
2023/06/09 16:38:58;;;;;;;6.60;4.65;;;;;31.00;95991.00;;;;8266877;28;20209;-72
2023/06/09 16:43:02;;;;;;;5.13;4.63;;;;;31.10;95986.00;;;;8278016;28;20241;-72
2023/06/09 16:47:07;;;;;;;4.93;4.43;;;;;31.50;95987.00;;;;8262728;28;20297;-72
2023/06/09 16:51:11;;;;;;;5.60;4.25;;;;;31.80;95997.00;;;;8270717;28;20218;-71
2023/06/09 16:55:22;;;;;;;6.22;4.50;;;;;32.20;95995.00;;;;8263287;28;20648;-72
2023/06/09 16:59:28;;;;;;;5.20;4.10;;;;;32.40;96002.00;;;;8271185;28;20264;-73
2023/06/09 17:03:33;;;;;;;5.53;4.32;;;;;32.50;95993.00;;;;8272520;28;20313;-72
2023/06/09 17:07:36;;;;;;;5.72;4.82;;;;;32.10;95998.00;;;;8272650;28;20210;-70
2023/06/09 17:11:42;;;;;;;6.95;4.60;;;;;31.40;96006.00;;;;8276785;28;20286;-74
2023/06/09 17:15:47;;;;;;;6.03;4.78;;;;;30.80;96001.00;;;;8277881;28;20211;-71
2023/06/09 17:19:56;;;;;;;5.15;4.30;;;;;30.60;96006.00;;;;8278238;28;20676;-72
2023/06/09 17:24:03;;;;;;;9.88;4.95;;;;;30.30;96011.00;;;;8272595;28;20210;-72
2023/06/09 17:28:08;;;;;;;4.90;4.35;;;;;29.90;96010.00;;;;8278301;28;20233;-71
2023/06/09 17:32:11;;;;;;;6.55;5.15;;;;;30.00;96013.00;;;;8278026;28;20202;-71
2023/06/09 17:36:16;;;;;;;5.68;5.10;;;;;29.80;96020.00;;;;8279950;28;20683;-73
2023/06/09 17:40:25;;;;;;;5.10;4.60;;;;;29.70;96022.00;;;;8281233;28;20295;-71
2023/06/09 17:44:30;;;;;;;6.53;5.22;;;;;29.70;96028.00;;;;8266561;28;20206;-71
2023/06/09 17:48:43;;;;;;;9.20;5.30;;;;;28.80;96035.00;;;;8272840;28;20201;-71
2023/06/09 17:52:50;;;;;;;6.00;5.40;;;;;27.80;96035.00;;;;8278538;28;20198;-70
2023/06/09 17:56:53;;;;;;;6.20;5.60;;;;;27.20;96028.00;;;;8264124;28;20673;-72
2023/06/09 18:00:57;;;;;;;6.05;5.45;;;;;26.60;96029.00;;;;8277139;28;20242;-71
2023/06/09 18:05:03;;;;;;;5.93;5.35;;;;;26.20;96028.00;;;;8279338;28;20234;-70
2023/06/09 18:09:08;;;;;;;7.32;4.13;;;;;25.90;96033.00;;;;8270217;28;20205;-70
2023/06/09 18:13:15;;;;;;;3.90;3.60;;;;;25.50;96036.00;;;;8270499;28;20559;-72
2023/06/09 18:17:18;;;;;;;5.40;3.70;;;;;25.30;96030.00;;;;8264559;28;20226;-72
2023/06/09 18:21:24;;;;;;;4.82;4.07;;;;;25.00;96048.00;;;;8280051;28;20316;-71
2023/06/09 18:25:31;;;;;;;5.97;3.90;;;;;24.80;96041.00;;;;8264315;28;20206;-71
2023/06/09 18:29:43;;;;;;;11.07;4.78;;;;;24.60;96048.00;;;;8273597;28;21334;-70
2023/06/09 18:33:46;;;;;;;8.43;4.70;;;;;24.30;96044.00;;;;8273018;28;20289;-70
2023/06/09 18:37:51;;;;;;;5.82;4.20;;;;;24.00;96049.00;;;;8280057;28;20371;-70
2023/06/09 18:41:55;;;;;;;5.30;4.43;;;;;23.80;96048.00;;;;8279977;28;20249;-70
2023/06/09 18:46:02;;;;;;;6.13;5.07;;;;;23.50;96051.00;;;;8278495;28;20206;-73
2023/06/09 18:50:07;;;;;;;4.93;4.40;;;;;23.30;96047.00;;;;8280863;28;20209;-70
2023/06/09 18:54:12;;;;;;;4.75;4.35;;;;;23.20;96053.00;;;;8273493;28;20230;-72
2023/06/09 18:58:17;;;;;;;4.90;4.40;;;;;23.00;96050.00;;;;8276855;28;20202;-72
2023/06/09 19:02:20;;;;;;;5.05;4.53;;;;;22.80;96054.00;;;;8265433;28;20269;-70
2023/06/09 19:06:23;;;;;;;6.70;4.30;;;;;22.70;96059.00;;;;8263428;28;20321;-70
2023/06/09 19:10:31;;;;;;;4.45;3.95;;;;;22.50;96060.00;;;;8271138;28;20659;-71
2023/06/09 19:14:36;;;;;;;4.68;4.28;;;;;22.40;96068.00;;;;8275876;28;20232;-72
2023/06/09 19:18:39;;;;;;;5.72;4.60;;;;;22.20;96072.00;;;;8271885;28;20245;-72
2023/06/09 19:22:42;;;;;;;5.07;4.57;;;;;22.10;96078.00;;;;8271464;28;20317;-72
2023/06/09 19:26:45;;;;;;;4.30;3.90;;;;;21.90;96071.00;;;;8277161;28;20203;-71
2023/06/09 19:30:51;;;;;;;7.78;4.47;;;;;21.80;96080.00;;;;8277377;28;20727;-70
2023/06/09 19:34:57;;;;;;;7.55;4.68;;;;;21.70;96078.00;;;;8287129;28;20217;-70
2023/06/09 19:39:00;;;;;;;5.45;4.45;;;;;21.50;96087.00;;;;8269620;28;20293;-70
2023/06/09 19:43:05;;;;;;;4.57;4.10;;;;;21.40;96083.00;;;;8277328;28;20847;-72
2023/06/09 19:47:10;;;;;;;5.45;4.55;;;;;21.30;96082.00;;;;8270377;28;20194;-72
2023/06/09 19:51:15;;;;;;;5.57;4.28;;;;;21.20;96086.00;;;;8273336;28;20285;-73
2023/06/09 19:55:19;;;;;;;9.40;4.63;;;;;21.10;96084.00;;;;8274376;28;20206;-69
2023/06/09 19:59:26;;;;;;;5.55;4.72;;;;;21.00;96092.00;;;;8265748;28;20203;-69
2023/06/09 20:03:31;;;;;;;5.55;4.47;;;;;20.90;96094.00;;;;8279235;28;20329;-71
2023/06/09 20:07:36;;;;;;;5.13;4.60;;;;;20.80;96089.00;;;;8271303;28;20194;-71
2023/06/09 20:11:39;;;;;;;5.53;4.97;;;;;20.70;96100.00;;;;8276252;28;20827;-71
2023/06/09 20:15:43;;;;;;;5.22;4.68;;;;;20.60;96099.00;;;;8268407;28;20241;-70
2023/06/09 20:19:50;;;;;;;7.00;5.63;;;;;20.50;96098.00;;;;8270041;28;20206;-70
2023/06/09 20:23:54;;;;;;;6.05;5.28;;;;;20.50;96097.00;;;;8271332;28;20798;-72
2023/06/09 20:27:57;;;;;;;5.70;5.20;;;;;20.40;96096.00;;;;8267073;28;20213;-70
2023/06/09 20:32:03;;;;;;;6.80;5.22;;;;;20.30;96101.00;;;;8280817;28;20758;-70